Shchel'yayur, Russia
Current Conditions -  °F | °C
As of 1:30 AM on Tuesday 23 Dec 2014 (Local Time) from UUYY Reporting Station
Overcast Overcast  
Wind Chill: 27°   Ceiling: 6600
Heat Index: 27°   Visibility: 6mi
Dew Point: 27°   Wind: 2mph
Humidity: 100%   Direction: NA
Pressure: 29.18"   Gusts: NA
Location:  65.18°N, 53.27°E
Report Text: UUYY 222230Z VRB01MPS 9000 SCT020CB OVC066 M03/M03 Q0988 TEMPO 2000 SHSN 19490535 RMK QFE733/0977
Loading
Personal Weather Stations






























Interactive Weather Map New forecast layout! Learn more

10-Day Weather Forecast

Advertisements
Track Severe Weather on mobile